Weather at Port-O-John Airport

Public forecast

Using degrees Fahrenheit for public forecast. Weather courtesy of forecast.io.

Closest aviation weather report (METAR) to Port-O-John Airport

Closest report is Bolton Field, 7.5 nm (13.9 km) NNE. Retrieved 2021/03/07 23:47 UTC (2 hours ago):

KTZR 072347Z 33003KT 10SM CLR 03/M11 A3043

Closest aviation forecast (TAF) to Port-O-John Airport

Forecast is more than 6 hours old.

Closest forecast is Rickenbacker International Airport, 13.7 nm (25.3 km) E. Retrieved 2021/03/07 18:56 UTC (7 hours ago):

TAF KLCK 071739Z 0718/0818 34007KT P6SM SKC FM080000 00000KT P6SM SKC FM081300 19006KT P6SM FEW250 FM081700 21010KT P6SM FEW200